地図

経路データ

SID SEASON NUMBER BASIN SUBBASIN NAME ISO_TIME NATURE LAT LON WMO_WIND WMO_PRES WMO_AGENCY TRACK_TYPE DIST2LAND LANDFALL IFLAG USA_AGENCY USA_ATCF_ID USA_LAT USA_LON USA_RECORD USA_STATUS USA_WIND USA_PRES USA_SSHS USA_R34_NE USA_R34_SE USA_R34_SW USA_R34_NW USA_R50_NE USA_R50_SE USA_R50_SW USA_R50_NW USA_R64_NE USA_R64_SE USA_R64_SW USA_R64_NW USA_POCI USA_ROCI USA_RMW USA_EYE TOKYO_LAT TOKYO_LON TOKYO_GRADE TOKYO_WIND TOKYO_PRES TOKYO_R50_DIR TOKYO_R50_LONG TOKYO_R50_SHORT TOKYO_R30_DIR TOKYO_R30_LONG TOKYO_R30_SHORT TOKYO_LAND CMA_LAT CMA_LON CMA_CAT CMA_WIND CMA_PRES HKO_LAT HKO_LON HKO_CAT HKO_WIND HKO_PRES NEWDELHI_LAT NEWDELHI_LON NEWDELHI_GRADE NEWDELHI_WIND NEWDELHI_PRES NEWDELHI_CI NEWDELHI_DP NEWDELHI_POCI REUNION_LAT REUNION_LON REUNION_TYPE REUNION_WIND REUNION_PRES REUNION_TNUM REUNION_CI REUNION_RMW REUNION_R34_NE REUNION_R34_SE REUNION_R34_SW REUNION_R34_NW REUNION_R50_NE REUNION_R50_SE REUNION_R50_SW REUNION_R50_NW REUNION_R64_NE REUNION_R64_SE REUNION_R64_SW REUNION_R64_NW BOM_LAT BOM_LON BOM_TYPE BOM_WIND BOM_PRES BOM_TNUM BOM_CI BOM_RMW BOM_R34_NE BOM_R34_SE BOM_R34_SW BOM_R34_NW BOM_R50_NE BOM_R50_SE BOM_R50_SW BOM_R50_NW BOM_R64_NE BOM_R64_SE BOM_R64_SW BOM_R64_NW BOM_ROCI BOM_POCI BOM_EYE BOM_POS_METHOD BOM_PRES_METHOD NADI_LAT NADI_LON NADI_CAT NADI_WIND NADI_PRES WELLINGTON_LAT WELLINGTON_LON WELLINGTON_WIND WELLINGTON_PRES DS824_LAT DS824_LON DS824_STAGE DS824_WIND DS824_PRES TD9636_LAT TD9636_LON TD9636_STAGE TD9636_WIND TD9636_PRES TD9635_LAT TD9635_LON TD9635_WIND TD9635_PRES TD9635_ROCI NEUMANN_LAT NEUMANN_LON NEUMANN_CLASS NEUMANN_WIND NEUMANN_PRES MLC_LAT MLC_LON MLC_CLASS MLC_WIND MLC_PRES USA_GUST BOM_GUST BOM_GUST_PER REUNION_GUST REUNION_GUST_PER USA_SEAHGT USA_SEARAD_NE USA_SEARAD_SE USA_SEARAD_SW USA_SEARAD_NW STORM_SPEED STORM_DIR
1962331N33287 1962 106 NA NA NOT_NAMED 1962-11-26 12:00:00 ET 33.0000 -73.0000 70 hurdat_atl main 370 319 O_____________ hurdat_atl AL071962 33.0000 -73.0000 EX 70 -4 13 272
1962331N33287 1962 106 NA NA NOT_NAMED 1962-11-26 15:00:00 ET 33.0210 -73.7673 main 312 264 P_____________ AL071962 33.0210 -73.7673 EX 70 -4 13 270
1962331N33287 1962 106 NA NA NOT_NAMED 1962-11-26 18:00:00 ET 33.0000 -74.5000 70 hurdat_atl main 264 238 O_____________ hurdat_atl AL071962 33.0000 -74.5000 EX 70 -4 12 264
1962331N33287 1962 106 NA NA NOT_NAMED 1962-11-26 21:00:00 ET 32.9023 -75.1600 main 233 227 P_____________ AL071962 32.9023 -75.1600 EX 70 -4 11 253
1962331N33287 1962 106 NA NA NOT_NAMED 1962-11-27 00:00:00 ET 32.7000 -75.7000 70 hurdat_atl main 234 232 O_____________ hurdat_atl AL071962 32.7000 -75.7000 EX 70 -4 10 237
1962331N33287 1962 106 NA NA NOT_NAMED 1962-11-27 03:00:00 ET 32.3797 -76.1253 main 243 243 P_____________ AL071962 32.3797 -76.1253 EX 70 -4 9 220
1962331N33287 1962 106 NA NA NOT_NAMED 1962-11-27 06:00:00 ET 32.0000 -76.4000 70 hurdat_atl main 259 259 O_____________ hurdat_atl AL071962 32.0000 -76.4000 EX 70 -4 8 209
1962331N33287 1962 106 NA NA NOT_NAMED 1962-11-27 09:00:00 ET 31.6798 -76.5826 main 277 277 P_____________ AL071962 31.6798 -76.5826 EX 67 -4 7 194
1962331N33287 1962 106 NA NA NOT_NAMED 1962-11-27 12:00:00 ET 31.3000 -76.6000 65 hurdat_atl main 318 318 O_____________ hurdat_atl AL071962 31.3000 -76.6000 EX 65 -4 9 173
1962331N33287 1962 106 NA NA NOT_NAMED 1962-11-27 15:00:00 ET 30.7800 -76.4597 main 367 367 P_____________ AL071962 30.7800 -76.4597 EX 65 -4 12 163
1962331N33287 1962 106 NA NA NOT_NAMED 1962-11-27 18:00:00 ET 30.2000 -76.2000 65 hurdat_atl main 434 434 O_____________ hurdat_atl AL071962 30.2000 -76.2000 EX 65 -4 13 160
1962331N33287 1962 106 NA NA NOT_NAMED 1962-11-27 21:00:00 ET 29.5897 -75.9523 main 453 453 P_____________ AL071962 29.5897 -75.9523 EX 65 -4 12 155
1962331N33287 1962 106 NA NA NOT_NAMED 1962-11-28 00:00:00 TS 29.1000 -75.6000 65 992 hurdat_atl main 481 481 O_____________ hurdat_atl AL071962 29.1000 -75.6000 HU 65 992 1 10 134
1962331N33287 1962 106 NA NA NOT_NAMED 1962-11-28 03:00:00 TS 28.8675 -75.1028 main 512 508 P_____________ AL071962 28.8675 -75.1028 HU 65 1 10 107
1962331N33287 1962 106 NA NA NOT_NAMED 1962-11-28 06:00:00 TS 28.8000 -74.5000 65 hurdat_atl main 539 539 O_____________ hurdat_atl AL071962 28.8000 -74.5000 HU 65 1 11 97
1962331N33287 1962 106 NA NA NOT_NAMED 1962-11-28 09:00:00 TS 28.7252 -73.8420 main 578 578 P_____________ AL071962 28.7252 -73.8420 HU 62 0 11 90
1962331N33287 1962 106 NA NA NOT_NAMED 1962-11-28 12:00:00 TS 28.8000 -73.2000 60 hurdat_atl main 629 629 O_____________ hurdat_atl AL071962 28.8000 -73.2000 TS 60 0 11 71
1962331N33287 1962 106 NA NA NOT_NAMED 1962-11-28 15:00:00 TS 29.0898 -72.6481 main 696 696 P_____________ AL071962 29.0898 -72.6481 TS 60 0 11 51
1962331N33287 1962 106 NA NA NOT_NAMED 1962-11-28 18:00:00 TS 29.5000 -72.2000 60 997 hurdat_atl main 706 687 O_____________ hurdat_atl AL071962 29.5000 -72.2000 TS 60 997 0 11 40
1962331N33287 1962 106 NA NA NOT_NAMED 1962-11-28 21:00:00 TS 29.9148 -71.8400 main 693 671 P_____________ AL071962 29.9148 -71.8400 TS 57 0 10 33
1962331N33287 1962 106 NA NA NOT_NAMED 1962-11-29 00:00:00 TS 30.3000 -71.6000 55 hurdat_atl main 671 653 O_____________ hurdat_atl AL071962 30.3000 -71.6000 TS 55 0 8 27
1962331N33287 1962 106 NA NA NOT_NAMED 1962-11-29 03:00:00 TS 30.5949 -71.4323 main 660 644 P_____________ AL071962 30.5949 -71.4323 TS 55 0 5 19
1962331N33287 1962 106 NA NA NOT_NAMED 1962-11-29 06:00:00 TS 30.8000 -71.4000 55 hurdat_atl main 644 630 O_____________ hurdat_atl AL071962 30.8000 -71.4000 TS 55 0 3 351
1962331N33287 1962 106 NA NA NOT_NAMED 1962-11-29 09:00:00 TS 30.9375 -71.4973 main 630 608 P_____________ AL071962 30.9375 -71.4973 TS 52 0 3 308
1962331N33287 1962 106 NA NA NOT_NAMED 1962-11-29 12:00:00 TS 31.0000 -71.7000 50 hurdat_atl main 608 595 O_____________ hurdat_atl AL071962 31.0000 -71.7000 TS 50 0 4 284
1962331N33287 1962 106 NA NA NOT_NAMED 1962-11-29 15:00:00 TS 31.0300 -71.9274 main 595 575 P_____________ AL071962 31.0300 -71.9274 TS 50 0 4 270
1962331N33287 1962 106 NA NA NOT_NAMED 1962-11-29 18:00:00 TS 31.0000 -72.2000 50 hurdat_atl main 575 562 O_____________ hurdat_atl AL071962 31.0000 -72.2000 TS 50 0 5 257
1962331N33287 1962 106 NA NA NOT_NAMED 1962-11-29 21:00:00 TS 30.9224 -72.4775 main 564 552 P_____________ AL071962 30.9224 -72.4775 TS 50 0 6 249
1962331N33287 1962 106 NA NA NOT_NAMED 1962-11-30 00:00:00 TS 30.8000 -72.8000 50 hurdat_atl main 555 542 O_____________ hurdat_atl AL071962 30.8000 -72.8000 TS 50 0 7 245
1962331N33287 1962 106 NA NA NOT_NAMED 1962-11-30 03:00:00 TS 30.6351 -73.2003 main 551 541 P_____________ AL071962 30.6351 -73.2003 TS 52 0 8 246
1962331N33287 1962 106 NA NA NOT_NAMED 1962-11-30 06:00:00 TS 30.5000 -73.6000 55 hurdat_atl main 541 532 O_____________ hurdat_atl AL071962 30.5000 -73.6000 TS 55 0 7 253
1962331N33287 1962 106 NA NA NOT_NAMED 1962-11-30 09:00:00 TS 30.4400 -73.9449 main 537 515 P_____________ AL071962 30.4400 -73.9449 TS 55 0 5 270
1962331N33287 1962 106 NA NA NOT_NAMED 1962-11-30 12:00:00 TS 30.5000 -74.2000 55 hurdat_atl main 515 491 O_____________ hurdat_atl AL071962 30.5000 -74.2000 TS 55 0 4 307
1962331N33287 1962 106 NA NA NOT_NAMED 1962-11-30 15:00:00 TS 30.6974 -74.3449 main 491 456 P_____________ AL071962 30.6974 -74.3449 TS 57 0 5 341
1962331N33287 1962 106 NA NA NOT_NAMED 1962-11-30 18:00:00 TS 31.0000 -74.4000 60 hurdat_atl main 456 426 O_____________ hurdat_atl AL071962 31.0000 -74.4000 TS 60 0 6 352
1962331N33287 1962 106 NA NA NOT_NAMED 1962-11-30 21:00:00 TS 31.3349 -74.4448 main 426 387 P_____________ AL071962 31.3349 -74.4448 TS 62 0 7 0
1962331N33287 1962 106 NA NA NOT_NAMED 1962-12-01 00:00:00 TS 31.7000 -74.4000 65 hurdat_atl main 387 363 O_____________ hurdat_atl AL071962 31.7000 -74.4000 HU 65 1 7 15
1962331N33287 1962 106 NA NA NOT_NAMED 1962-12-01 03:00:00 TS 32.0576 -74.2228 main 359 345 P_____________ AL071962 32.0576 -74.2228 HU 67 1 8 26
1962331N33287 1962 106 NA NA NOT_NAMED 1962-12-01 06:00:00 TS 32.4000 -74.0000 70 hurdat_atl main 345 334 O_____________ hurdat_atl AL071962 32.4000 -74.0000 HU 70 1 7 30
1962331N33287 1962 106 NA NA NOT_NAMED 1962-12-01 09:00:00 TS 32.6999 -73.7755 main 334 319 P_____________ AL071962 32.6999 -73.7755 HU 72 1 7 23
1962331N33287 1962 106 NA NA NOT_NAMED 1962-12-01 12:00:00 TS 33.0000 -73.7000 75 hurdat_atl main 319 283 O_____________ hurdat_atl AL071962 33.0000 -73.7000 HU 75 1 7 349
1962331N33287 1962 106 NA NA NOT_NAMED 1962-12-01 15:00:00 TS 33.3502 -73.9319 main 276 226 P_____________ AL071962 33.3502 -73.9319 HU 77 1 9 324
1962331N33287 1962 106 NA NA NOT_NAMED 1962-12-01 18:00:00 TS 33.7000 -74.3000 80 hurdat_atl main 226 179 O_____________ hurdat_atl AL071962 33.7000 -74.3000 HU 80 1 9 322
1962331N33287 1962 106 NA NA NOT_NAMED 1962-12-01 21:00:00 TS 34.0675 -74.6146 main 179 144 P_____________ AL071962 34.0675 -74.6146 HU 80 1 8 320
1962331N33287 1962 106 NA NA NOT_NAMED 1962-12-02 00:00:00 TS 34.3000 -74.9000 80 hurdat_atl main 144 128 O_____________ hurdat_atl AL071962 34.3000 -74.9000 HU 80 1 5 296
1962331N33287 1962 106 NA NA NOT_NAMED 1962-12-02 03:00:00 TS 34.2749 -75.1305 main 128 120 P_____________ AL071962 34.2749 -75.1305 HU 77 1 4 239
1962331N33287 1962 106 NA NA NOT_NAMED 1962-12-02 06:00:00 TS 34.1000 -75.3000 75 992 hurdat_atl main 127 127 O_____________ hurdat_atl AL071962 34.1000 -75.3000 HU 75 992 1 4 214
1962331N33287 1962 106 NA NA NOT_NAMED 1962-12-02 09:00:00 TS 33.9299 -75.4073 main 134 134 P_____________ AL071962 33.9299 -75.4073 HU 72 991 1 4 203
1962331N33287 1962 106 NA NA NOT_NAMED 1962-12-02 12:00:00 TS 33.7000 -75.5000 70 hurdat_atl main 144 144 I_____________ hurdat_atl AL071962 33.7000 -75.5000 HU 70 991 1 6 201
1962331N33287 1962 106 NA NA NOT_NAMED 1962-12-02 15:00:00 TS 33.4075 -75.6501 main 162 162 P_____________ AL071962 33.4075 -75.6501 HU 67 991 1 7 203
1962331N33287 1962 106 NA NA NOT_NAMED 1962-12-02 18:00:00 TS 33.1000 -75.8000 65 991 hurdat_atl main 189 189 O_____________ hurdat_atl AL071962 33.1000 -75.8000 HU 65 991 1 6 205
1962331N33287 1962 106 NA NA NOT_NAMED 1962-12-02 21:00:00 TS 32.8424 -75.9603 main 216 216 P_____________ AL071962 32.8424 -75.9603 HU 62 0 5 199
1962331N33287 1962 106 NA NA NOT_NAMED 1962-12-03 00:00:00 TS 32.6000 -76.0000 60 hurdat_atl main 235 235 O_____________ hurdat_atl AL071962 32.6000 -76.0000 TS 60 0 5 167
1962331N33287 1962 106 NA NA NOT_NAMED 1962-12-03 03:00:00 TS 32.3201 -75.8095 main 271 271 P_____________ AL071962 32.3201 -75.8095 TS 57 0 7 140
1962331N33287 1962 106 NA NA NOT_NAMED 1962-12-03 06:00:00 TS 32.1000 -75.5000 55 hurdat_atl main 304 304 O_____________ hurdat_atl AL071962 32.1000 -75.5000 TS 55 0 6 124
1962331N33287 1962 106 NA NA NOT_NAMED 1962-12-03 09:00:00 TS 31.9750 -75.1999 main 324 324 P_____________ AL071962 31.9750 -75.1999 TS 52 0 5 101
1962331N33287 1962 106 NA NA NOT_NAMED 1962-12-03 12:00:00 TS 32.0000 -74.9000 50 hurdat_atl main 335 324 O_____________ hurdat_atl AL071962 32.0000 -74.9000 TS 50 0 5 65
1962331N33287 1962 106 NA NA NOT_NAMED 1962-12-03 15:00:00 TS 32.2050 -74.6204 main 329 312 P_____________ AL071962 32.2050 -74.6204 TS 50 0 7 40
1962331N33287 1962 106 NA NA NOT_NAMED 1962-12-03 18:00:00 TS 32.5000 -74.4000 50 hurdat_atl main 312 293 O_____________ hurdat_atl AL071962 32.5000 -74.4000 TS 50 0 6 27
1962331N33287 1962 106 NA NA NOT_NAMED 1962-12-03 21:00:00 TS 32.7649 -74.2773 main 293 284 P_____________ AL071962 32.7649 -74.2773 TS 50 0 5 19
1962331N33287 1962 106 NA NA NOT_NAMED 1962-12-04 00:00:00 TS 33.0000 -74.2000 50 hurdat_atl main 284 276 O_____________ hurdat_atl AL071962 33.0000 -74.2000 TS 50 0 4 21
1962331N33287 1962 106 NA NA NOT_NAMED 1962-12-04 03:00:00 TS 33.1500 -74.1073 main 284 276 P_____________ AL071962 33.1500 -74.1073 TS 50 0 3 29
1962331N33287 1962 106 NA NA NOT_NAMED 1962-12-04 06:00:00 TS 33.3000 -74.0000 50 hurdat_atl main 276 269 O_____________ hurdat_atl AL071962 33.3000 -74.0000 TS 50 0 4 27
1962331N33287 1962 106 NA NA NOT_NAMED 1962-12-04 09:00:00 TS 33.5123 -73.8870 main 269 263 P_____________ AL071962 33.5123 -73.8870 TS 50 0 6 27
1962331N33287 1962 106 NA NA NOT_NAMED 1962-12-04 12:00:00 TS 33.8000 -73.7000 50 hurdat_atl main 267 260 O_____________ hurdat_atl AL071962 33.8000 -73.7000 TS 50 0 8 32
1962331N33287 1962 106 NA NA NOT_NAMED 1962-12-04 15:00:00 TS 34.1624 -73.4022 main 261 260 P_____________ AL071962 34.1624 -73.4022 TS 52 0 10 36
1962331N33287 1962 106 NA NA NOT_NAMED 1962-12-04 18:00:00 TS 34.6000 -73.0000 55 992 hurdat_atl main 263 257 O_____________ hurdat_atl AL071962 34.6000 -73.0000 TS 55 992 0 12 38
1962331N33287 1962 106 NA NA NOT_NAMED 1962-12-04 21:00:00 TS 35.1000 -72.5228 main 282 279 P_____________ AL071962 35.1000 -72.5228 TS 57 0 13 39
1962331N33287 1962 106 NA NA NOT_NAMED 1962-12-05 00:00:00 ET 35.6000 -72.0000 60 hurdat_atl main 316 316 O_____________ hurdat_atl AL071962 35.6000 -72.0000 EX 60 -4 12 42
1962331N33287 1962 106 NA NA NOT_NAMED 1962-12-05 03:00:00 ET 36.0297 -71.5069 main 360 360 P_____________ AL071962 36.0297 -71.5069 EX 62 -4 11 45
1962331N33287 1962 106 NA NA NOT_NAMED 1962-12-05 06:00:00 ET 36.4000 -71.0000 65 hurdat_atl main 408 408 O_____________ hurdat_atl AL071962 36.4000 -71.0000 EX 65 -4 11 51
1962331N33287 1962 106 NA NA NOT_NAMED 1962-12-05 09:00:00 ET 36.7147 -70.4643 main 442 442 P_____________ AL071962 36.7147 -70.4643 EX 67 -4 11 56
1962331N33287 1962 106 NA NA NOT_NAMED 1962-12-05 12:00:00 ET 37.0000 -69.9000 70 hurdat_atl main 473 473 O_____________ hurdat_atl AL071962 37.0000 -69.9000 EX 70 -4 11 56
1962331N33287 1962 106 NA NA NOT_NAMED 1962-12-05 15:00:00 ET 37.3142 -69.3446 main 482 463 P_____________ AL071962 37.3142 -69.3446 EX 70 -4 11 58
1962331N33287 1962 106 NA NA NOT_NAMED 1962-12-05 18:00:00 ET 37.6000 -68.7000 70 hurdat_atl main 466 462 O_____________ hurdat_atl AL071962 37.6000 -68.7000 EX 70 -4 12 67
1962331N33287 1962 106 NA NA NOT_NAMED 1962-12-05 21:00:00 ET 37.8074 -67.8941 main 469 466 P_____________ AL071962 37.8074 -67.8941 EX 65 -4 14 73
1962331N33287 1962 106 NA NA NOT_NAMED 1962-12-06 00:00:00 ET 38.0000 -67.0000 60 hurdat_atl main 484 484 O_____________ hurdat_atl AL071962 38.0000 -67.0000 EX 60 -4 15 73
1962331N33287 1962 106 NA NA NOT_NAMED 1962-12-06 03:00:00 ET 38.2361 -66.0992 main 511 508 P_____________ AL071962 38.2361 -66.0992 EX 55 -4 15 71
1962331N33287 1962 106 NA NA NOT_NAMED 1962-12-06 06:00:00 ET 38.5000 -65.2000 50 hurdat_atl main 540 O_____________ hurdat_atl AL071962 38.5000 -65.2000 EX 50 -4 15 69

IBTrACS Databaseについて

本データベースは、米国NOAAが公開する1842年以降の世界の熱帯低気圧のベストトラックデータアーカイブInternational Best Track Archive for Climate Stewardship (IBTrACS)を、ウェブで閲覧しやすい形式に変換したものです。

最終更新日:2021-11-26